createdAt,value
2022-10-11T00:01:30.486Z,4.35
2022-10-11T00:03:57.498Z,4.50
2022-10-11T00:06:24.559Z,3.65
2022-10-11T00:08:51.583Z,3.83
2022-10-11T00:11:18.590Z,4.15
2022-10-11T00:13:45.659Z,4.40
2022-10-11T00:16:14.156Z,4.80
2022-10-11T00:18:41.222Z,4.68
2022-10-11T00:21:09.676Z,4.50
2022-10-11T00:23:36.715Z,4.68
2022-10-11T00:26:05.214Z,5.55
2022-10-11T00:28:32.864Z,4.25
2022-10-11T00:31:00.019Z,4.63
2022-10-11T00:33:27.160Z,4.13
2022-10-11T00:35:54.301Z,4.63
2022-10-11T00:38:21.357Z,4.07
2022-10-11T00:40:48.359Z,4.47
2022-10-11T00:43:17.110Z,4.28
2022-10-11T00:46:04.813Z,4.38
2022-10-11T00:48:38.594Z,4.55
2022-10-11T00:51:08.416Z,4.65
2022-10-11T00:53:35.750Z,4.53
2022-10-11T00:56:05.337Z,5.18
2022-10-11T00:58:34.434Z,4.90
2022-10-11T01:01:01.583Z,4.30
2022-10-11T01:03:29.485Z,4.63
2022-10-11T01:05:56.511Z,4.30
2022-10-11T01:08:23.727Z,4.47
2022-10-11T01:10:51.262Z,5.03
2022-10-11T01:13:24.173Z,4.95
2022-10-11T01:15:54.562Z,3.10
2022-10-11T01:18:31.703Z,4.20
2022-10-11T01:21:13.827Z,3.97
2022-10-11T01:23:46.832Z,4.35
2022-10-11T01:26:29.995Z,3.28
2022-10-11T01:28:59.976Z,3.90
2022-10-11T01:31:30.176Z,4.55
2022-10-11T01:34:06.180Z,4.88
2022-10-11T01:36:53.410Z,4.97
2022-10-11T01:39:23.291Z,4.00
2022-10-11T01:41:51.922Z,4.47
2022-10-11T01:44:19.096Z,4.80
2022-10-11T01:46:46.131Z,4.35
2022-10-11T01:49:13.125Z,4.20
2022-10-11T01:51:47.006Z,5.00
2022-10-11T01:54:22.432Z,4.43
2022-10-11T01:57:09.721Z,4.70
2022-10-11T01:59:53.085Z,4.85
2022-10-11T02:02:27.672Z,5.33
2022-10-11T02:05:14.933Z,4.28
2022-10-11T02:07:49.002Z,4.65
2022-10-11T02:10:26.600Z,5.10
2022-10-11T02:13:03.672Z,5.68
2022-10-11T02:15:32.149Z,4.97
2022-10-11T02:18:01.461Z,5.25
2022-10-11T02:20:29.748Z,5.63
2022-10-11T02:23:07.067Z,5.07
2022-10-11T02:25:35.766Z,5.32
2022-10-11T02:28:04.948Z,4.95
2022-10-11T02:30:32.643Z,5.10
2022-10-11T02:33:00.886Z,5.25
2022-10-11T02:35:29.953Z,4.40
2022-10-11T02:38:00.264Z,5.03
2022-10-11T02:40:32.720Z,4.50
2022-10-11T02:43:02.076Z,4.35
2022-10-11T02:45:32.085Z,4.95
2022-10-11T02:47:59.212Z,4.00
2022-10-11T02:50:27.217Z,4.97
2022-10-11T02:52:54.209Z,5.60
2022-10-11T02:55:21.394Z,5.13
2022-10-11T02:57:48.431Z,5.18
2022-10-11T03:00:15.583Z,4.70
2022-10-11T03:02:42.779Z,5.22
2022-10-11T03:05:09.852Z,4.38
2022-10-11T03:07:36.911Z,4.95
2022-10-11T03:10:04.397Z,4.55
2022-10-11T03:12:31.420Z,5.30
2022-10-11T03:14:58.413Z,5.03
2022-10-11T03:17:38.210Z,5.20
2022-10-11T03:20:06.562Z,4.90
2022-10-11T03:22:33.580Z,4.60
2022-10-11T03:25:04.104Z,4.10
2022-10-11T03:27:32.107Z,4.43
2022-10-11T03:29:59.103Z,4.13
2022-10-11T03:32:26.216Z,4.53
2022-10-11T03:34:53.257Z,4.93
2022-10-11T03:37:20.269Z,5.20
2022-10-11T03:39:47.317Z,3.80
2022-10-11T03:42:14.621Z,4.70
2022-10-11T03:44:42.136Z,4.10
2022-10-11T03:47:09.556Z,4.18
2022-10-11T03:49:39.998Z,4.82
2022-10-11T03:52:10.588Z,4.47
2022-10-11T03:54:37.702Z,4.55
2022-10-11T03:57:04.762Z,4.03
2022-10-11T03:59:31.817Z,4.60
2022-10-11T04:01:59.177Z,4.18
2022-10-11T04:04:26.261Z,4.15
2022-10-11T04:06:53.490Z,4.50
2022-10-11T04:09:20.507Z,4.18
2022-10-11T04:11:47.547Z,4.07
2022-10-11T04:14:14.585Z,3.90
2022-10-11T04:16:42.075Z,4.75
2022-10-11T04:19:09.106Z,4.15
2022-10-11T04:21:36.123Z,3.88
2022-10-11T04:24:03.148Z,3.90
2022-10-11T04:26:30.179Z,4.25
2022-10-11T04:28:57.406Z,3.97
2022-10-11T04:31:24.873Z,4.32
2022-10-11T04:33:51.971Z,4.32
2022-10-11T04:36:18.951Z,4.05
2022-10-11T04:38:45.990Z,4.07
2022-10-11T04:41:14.125Z,5.95
2022-10-11T04:43:41.211Z,4.97
2022-10-11T04:46:09.560Z,4.07
2022-10-11T04:48:37.124Z,4.05
2022-10-11T04:51:04.522Z,4.28
2022-10-11T04:53:31.576Z,4.15
2022-10-11T04:56:06.249Z,4.05
2022-10-11T04:58:34.644Z,4.10
2022-10-11T05:01:01.641Z,4.25
2022-10-11T05:03:28.813Z,3.58
2022-10-11T05:05:56.135Z,4.30
2022-10-11T05:08:23.367Z,3.85
2022-10-11T05:10:56.989Z,3.95
2022-10-11T05:13:24.577Z,4.10
2022-10-11T05:15:51.742Z,4.05
2022-10-11T05:18:18.796Z,4.13
2022-10-11T05:20:45.877Z,5.13
2022-10-11T05:23:12.934Z,5.75
2022-10-11T05:25:39.947Z,6.55
2022-10-11T05:28:07.199Z,8.48
2022-10-11T05:30:34.345Z,7.82
2022-10-11T05:33:01.371Z,7.60
2022-10-11T05:35:28.388Z,7.07
2022-10-11T05:37:55.396Z,5.90
2022-10-11T05:40:22.375Z,6.10
2022-10-11T05:42:49.362Z,5.50
2022-10-11T05:45:16.395Z,5.03
2022-10-11T05:47:43.373Z,5.10
2022-10-11T05:50:10.706Z,4.43
2022-10-11T05:52:37.799Z,7.72
2022-10-11T05:55:05.114Z,8.48
2022-10-11T05:57:32.094Z,6.22
2022-10-11T05:59:59.074Z,6.40
2022-10-11T06:02:26.101Z,4.93
2022-10-11T06:04:53.154Z,4.72
2022-10-11T06:07:20.150Z,5.32
2022-10-11T06:09:47.136Z,5.93
2022-10-11T06:12:14.141Z,4.75
2022-10-11T06:14:41.167Z,4.95
2022-10-11T06:17:08.195Z,4.10
2022-10-11T06:19:35.356Z,5.00
2022-10-11T06:22:02.492Z,4.95
2022-10-11T06:24:29.497Z,4.60
2022-10-11T06:26:56.597Z,4.78
2022-10-11T06:29:23.621Z,4.85
2022-10-11T06:31:50.650Z,4.90
2022-10-11T06:34:17.630Z,4.70
2022-10-11T06:36:44.594Z,4.95
2022-10-11T06:39:11.666Z,4.78
2022-10-11T06:41:38.719Z,4.68
2022-10-11T06:44:07.196Z,4.72
2022-10-11T06:46:35.771Z,5.13
2022-10-11T06:49:02.753Z,4.90
2022-10-11T06:51:30.228Z,5.68
2022-10-11T06:53:58.479Z,5.03
2022-10-11T06:56:26.577Z,4.57
2022-10-11T06:58:54.006Z,4.63
2022-10-11T07:01:21.407Z,4.40
2022-10-11T07:03:48.800Z,4.15
2022-10-11T07:06:17.329Z,3.90
2022-10-11T07:08:44.598Z,4.32
2022-10-11T07:11:15.889Z,4.05
2022-10-11T07:13:43.141Z,4.25
2022-10-11T07:16:11.692Z,3.80
2022-10-11T07:18:39.207Z,4.72
2022-10-11T07:21:07.390Z,4.65
2022-10-11T07:23:34.894Z,4.07
2022-10-11T07:26:02.272Z,4.07
2022-10-11T07:28:30.592Z,3.97
2022-10-11T07:30:58.678Z,4.53
2022-10-11T07:33:25.797Z,4.45
2022-10-11T07:35:57.484Z,4.85
2022-10-11T07:38:24.979Z,4.30
2022-10-11T07:40:52.258Z,4.70
2022-10-11T07:43:20.752Z,4.22
2022-10-11T07:45:48.806Z,4.95
2022-10-11T07:48:15.989Z,4.70
2022-10-11T07:50:43.045Z,4.40
2022-10-11T07:53:10.087Z,4.05
2022-10-11T07:55:41.970Z,4.97
2022-10-11T07:58:09.975Z,4.72
2022-10-11T08:00:37.299Z,4.47
2022-10-11T08:03:05.058Z,3.90
2022-10-11T08:05:32.379Z,4.80
2022-10-11T08:07:59.384Z,4.20
2022-10-11T08:10:27.264Z,5.00
2022-10-11T08:12:54.242Z,4.97
2022-10-11T08:15:21.593Z,5.38
2022-10-11T08:17:48.607Z,4.28
2022-10-11T08:20:15.700Z,4.25
2022-10-11T08:22:42.703Z,4.95
2022-10-11T08:25:09.870Z,3.85
2022-10-11T08:27:36.970Z,4.43
2022-10-11T08:30:04.658Z,4.50
2022-10-11T08:32:31.660Z,5.05
2022-10-11T08:34:58.731Z,3.75
2022-10-11T08:37:25.760Z,4.68
2022-10-11T08:39:52.780Z,4.45
2022-10-11T08:42:29.266Z,4.25
2022-10-11T08:45:10.571Z,4.53
2022-10-11T08:47:40.664Z,4.00
2022-10-11T08:50:08.946Z,4.72
2022-10-11T08:52:54.213Z,4.07
2022-10-11T08:55:30.274Z,3.45
2022-10-11T08:57:57.446Z,4.03
2022-10-11T09:00:24.948Z,3.42
2022-10-11T09:03:08.385Z,4.40
2022-10-11T09:05:36.866Z,4.45
2022-10-11T09:08:10.928Z,5.05
2022-10-11T09:10:40.945Z,4.75
2022-10-11T09:13:07.965Z,4.68
2022-10-11T09:15:37.953Z,4.88
2022-10-11T09:18:13.215Z,5.28
2022-10-11T09:20:58.891Z,5.53
2022-10-11T09:23:25.850Z,5.47
2022-10-11T09:25:55.665Z,5.43
2022-10-11T09:28:29.170Z,5.32
2022-10-11T09:30:57.115Z,4.97
2022-10-11T09:33:38.979Z,5.47
2022-10-11T09:36:14.784Z,5.50
2022-10-11T09:38:46.804Z,5.05
2022-10-11T09:41:22.475Z,5.20
2022-10-11T09:43:51.570Z,5.75
2022-10-11T09:46:23.687Z,5.10
2022-10-11T09:48:51.988Z,5.10
2022-10-11T09:51:21.438Z,5.72
2022-10-11T09:53:58.879Z,4.78
2022-10-11T09:56:27.014Z,5.05
2022-10-11T09:59:12.575Z,5.53
2022-10-11T10:01:39.609Z,5.03
2022-10-11T10:04:11.095Z,4.65
2022-10-11T10:06:38.587Z,4.38
2022-10-11T10:09:22.714Z,4.65
2022-10-11T10:11:49.832Z,4.70
2022-10-11T10:14:24.748Z,4.93
2022-10-11T10:16:59.767Z,4.57
2022-10-11T10:19:26.948Z,4.50
2022-10-11T10:21:54.902Z,5.32
2022-10-11T10:24:33.908Z,4.18
2022-10-11T10:27:06.943Z,4.53
2022-10-11T10:29:34.088Z,5.13
2022-10-11T10:32:19.215Z,5.22
2022-10-11T10:35:06.544Z,4.28
2022-10-11T10:37:36.889Z,3.85
2022-10-11T10:40:13.879Z,4.00
2022-10-11T10:42:41.032Z,4.60
2022-10-11T10:45:12.585Z,3.97
2022-10-11T10:47:58.950Z,4.45
2022-10-11T10:50:52.153Z,6.13
2022-10-11T10:53:24.675Z,4.80
2022-10-11T10:56:04.932Z,4.55
2022-10-11T10:58:56.344Z,4.00
2022-10-11T11:01:34.064Z,4.28
2022-10-11T11:04:19.290Z,4.07
2022-10-11T11:07:09.512Z,3.65
2022-10-11T11:09:42.723Z,3.83
2022-10-11T11:12:18.244Z,3.95
2022-10-11T11:14:45.290Z,4.57
2022-10-11T11:17:24.704Z,4.32
2022-10-11T11:20:01.690Z,4.10
2022-10-11T11:22:47.604Z,3.80
2022-10-11T11:25:44.696Z,4.43
2022-10-11T11:28:15.290Z,4.47
2022-10-11T11:31:00.986Z,4.50
2022-10-11T11:33:34.318Z,4.50
2022-10-11T11:36:06.708Z,4.15
2022-10-11T11:38:33.990Z,3.95
2022-10-11T11:41:02.650Z,4.47
2022-10-11T11:43:38.088Z,4.50
2022-10-11T11:46:16.908Z,4.80
2022-10-11T11:48:44.096Z,4.30
2022-10-11T11:51:17.777Z,4.03
2022-10-11T11:53:50.821Z,4.00
2022-10-11T11:56:26.349Z,4.90
2022-10-11T11:59:02.986Z,3.63
2022-10-11T12:01:36.029Z,4.68
2022-10-11T12:04:05.049Z,4.77
2022-10-11T12:06:34.631Z,4.00
2022-10-11T12:09:08.364Z,3.65
2022-10-11T12:11:38.125Z,3.38
2022-10-11T12:14:19.418Z,3.08
2022-10-11T12:17:05.164Z,3.58
2022-10-11T12:19:32.197Z,3.88
2022-10-11T12:22:37.640Z,3.30
2022-10-11T12:25:12.794Z,3.40
2022-10-11T12:27:46.483Z,3.65
2022-10-11T12:30:32.216Z,4.00
2022-10-11T12:33:18.046Z,4.22
2022-10-11T12:35:51.241Z,3.80
2022-10-11T12:38:39.250Z,2.35
2022-10-11T12:41:16.866Z,3.42
2022-10-11T12:43:49.860Z,4.03
2022-10-11T12:46:29.042Z,4.00
2022-10-11T12:49:14.951Z,3.80
2022-10-11T12:51:51.065Z,3.10
2022-10-11T12:54:36.918Z,3.33
2022-10-11T12:57:12.303Z,3.15
2022-10-11T12:59:45.017Z,3.80
2022-10-11T13:02:38.406Z,3.97
2022-10-11T13:05:09.241Z,3.80
2022-10-11T13:07:36.488Z,3.78
2022-10-11T13:10:05.063Z,3.80
2022-10-11T13:12:35.918Z,4.15
2022-10-11T13:15:07.012Z,4.65
2022-10-11T13:17:38.417Z,4.05
2022-10-11T13:20:18.366Z,3.92
2022-10-11T13:22:47.378Z,4.13
2022-10-11T13:25:20.880Z,3.95
2022-10-11T13:27:48.996Z,4.50
2022-10-11T13:30:21.107Z,4.53
2022-10-11T13:32:48.424Z,3.97
2022-10-11T13:35:20.998Z,4.07
2022-10-11T13:37:51.055Z,3.20
2022-10-11T13:40:19.639Z,4.05
2022-10-11T13:42:48.415Z,3.10
2022-10-11T13:45:17.528Z,4.13
2022-10-11T13:47:45.233Z,3.13
2022-10-11T13:50:33.528Z,4.03
2022-10-11T13:53:04.891Z,3.42
2022-10-11T13:55:50.988Z,4.00
2022-10-11T13:58:22.046Z,4.18
2022-10-11T14:00:53.894Z,4.45
2022-10-11T14:03:21.900Z,3.85
2022-10-11T14:05:56.728Z,4.25
2022-10-11T14:08:42.252Z,4.68
2022-10-11T14:11:10.352Z,4.93
2022-10-11T14:13:39.480Z,4.47
2022-10-11T14:16:21.647Z,4.90
2022-10-11T14:18:52.451Z,5.55
2022-10-11T14:21:19.442Z,5.43
2022-10-11T14:23:53.813Z,5.15
2022-10-11T14:26:21.760Z,5.00
2022-10-11T14:28:50.755Z,4.78
2022-10-11T14:31:17.886Z,4.75
2022-10-11T14:33:44.997Z,4.40
2022-10-11T14:36:12.003Z,4.82
2022-10-11T14:38:39.040Z,4.88
2022-10-11T14:41:06.210Z,4.20
2022-10-11T14:43:33.268Z,4.57
2022-10-11T14:46:00.322Z,4.45
2022-10-11T14:48:50.229Z,4.25
2022-10-11T14:51:15.365Z,4.03
2022-10-11T14:53:46.175Z,4.60
2022-10-11T14:56:18.953Z,4.28
2022-10-11T14:58:48.289Z,4.22
2022-10-11T15:01:15.933Z,4.72
2022-10-11T15:03:43.358Z,3.90
2022-10-11T15:06:24.442Z,4.97
2022-10-11T15:08:51.815Z,4.82
2022-10-11T15:11:19.798Z,4.00
2022-10-11T15:13:46.921Z,4.20
2022-10-11T15:16:14.986Z,4.80
2022-10-11T15:18:42.017Z,4.80
2022-10-11T15:21:12.429Z,4.30
2022-10-11T15:23:39.462Z,4.60
2022-10-11T15:26:06.823Z,5.22
2022-10-11T15:28:34.269Z,4.13
2022-10-11T15:31:01.381Z,4.78
2022-10-11T15:33:28.461Z,5.13
2022-10-11T15:35:55.577Z,4.93
2022-10-11T15:38:24.058Z,4.13
2022-10-11T15:40:51.354Z,5.03
2022-10-11T15:43:24.196Z,4.50
2022-10-11T15:45:51.713Z,4.90
2022-10-11T15:48:19.344Z,5.18
2022-10-11T15:50:46.511Z,5.68
2022-10-11T15:53:15.097Z,8.18
2022-10-11T15:55:43.764Z,7.60
2022-10-11T15:58:15.358Z,5.65
2022-10-11T16:00:43.184Z,5.75
2022-10-11T16:03:12.413Z,5.03
2022-10-11T16:05:39.662Z,5.05
2022-10-11T16:08:06.907Z,5.28
2022-10-11T16:10:34.038Z,5.45
2022-10-11T16:13:01.815Z,6.07
2022-10-11T16:15:29.087Z,5.20
2022-10-11T16:17:56.158Z,5.90
2022-10-11T16:20:25.576Z,5.28
2022-10-11T16:22:53.726Z,5.95
2022-10-11T16:25:21.424Z,5.90
2022-10-11T16:27:48.429Z,6.15
2022-10-11T16:30:16.212Z,5.40
2022-10-11T16:32:44.363Z,5.38
2022-10-11T16:35:12.280Z,5.40
2022-10-11T16:37:39.445Z,5.80
2022-10-11T16:40:07.610Z,5.88
2022-10-11T16:42:35.089Z,5.35
2022-10-11T16:45:02.144Z,5.20
2022-10-11T16:47:29.141Z,5.72
2022-10-11T16:49:56.353Z,4.95
2022-10-11T16:52:23.399Z,6.25
2022-10-11T16:54:50.415Z,5.85
2022-10-11T16:57:18.421Z,5.90
2022-10-11T16:59:45.650Z,5.95
2022-10-11T17:02:21.061Z,6.03
2022-10-11T17:04:50.488Z,5.28
2022-10-11T17:07:17.823Z,5.93
2022-10-11T17:09:45.465Z,6.40
2022-10-11T17:12:13.183Z,5.85
2022-10-11T17:14:41.055Z,7.00
2022-10-11T17:17:09.180Z,7.32
2022-10-11T17:19:41.343Z,6.70
2022-10-11T17:22:11.904Z,5.70
2022-10-11T17:24:39.364Z,6.32
2022-10-11T17:27:06.844Z,6.32
2022-10-11T17:29:33.914Z,6.18
2022-10-11T17:32:00.984Z,40.88
2022-10-11T17:34:28.297Z,8.50
2022-10-11T17:36:55.302Z,7.65
2022-10-11T17:39:23.808Z,7.30
2022-10-11T17:41:50.860Z,6.50
2022-10-11T17:44:18.493Z,6.78
2022-10-11T17:46:45.775Z,7.30
2022-10-11T17:49:13.052Z,8.40
2022-10-11T17:51:40.334Z,8.68
2022-10-11T17:54:12.141Z,7.55
2022-10-11T17:56:39.498Z,7.43
2022-10-11T17:59:06.980Z,7.93
2022-10-11T18:01:34.094Z,8.80
2022-10-11T18:04:02.983Z,8.50
2022-10-11T18:06:32.206Z,8.45
2022-10-11T18:09:03.133Z,9.98
2022-10-11T18:11:30.898Z,8.50
2022-10-11T18:13:57.945Z,8.15
2022-10-11T18:16:27.025Z,8.80
2022-10-11T18:18:54.802Z,9.45
2022-10-11T18:21:22.032Z,8.93
2022-10-11T18:23:49.108Z,9.50
2022-10-11T18:26:20.585Z,9.73
2022-10-11T18:28:48.122Z,10.07
2022-10-11T18:31:17.745Z,11.85
2022-10-11T18:33:45.924Z,10.80
2022-10-11T18:36:14.390Z,10.25
2022-10-11T18:38:46.094Z,10.80
2022-10-11T18:41:13.865Z,10.30
2022-10-11T18:43:41.377Z,10.65
2022-10-11T18:46:12.714Z,11.20
2022-10-11T18:48:46.218Z,11.80
2022-10-11T18:51:23.291Z,11.52
2022-10-11T18:53:51.818Z,10.77
2022-10-11T18:56:20.593Z,11.15
2022-10-11T18:58:48.172Z,11.27
2022-10-11T19:01:16.646Z,11.98
2022-10-11T19:03:44.233Z,11.13
2022-10-11T19:06:16.832Z,12.57
2022-10-11T19:08:47.449Z,12.35
2022-10-11T19:11:15.630Z,11.73
2022-10-11T19:13:42.840Z,12.63
2022-10-11T19:16:12.146Z,13.20
2022-10-11T19:18:43.922Z,12.45
2022-10-11T19:21:12.915Z,12.43
2022-10-11T19:23:41.029Z,13.70
2022-10-11T19:26:09.357Z,12.55
2022-10-11T19:28:36.669Z,11.65
2022-10-11T19:31:05.066Z,12.68
2022-10-11T19:33:33.325Z,11.35
2022-10-11T19:36:02.392Z,13.63
2022-10-11T19:38:29.994Z,12.57
2022-10-11T19:40:57.034Z,13.25
2022-10-11T19:43:24.044Z,13.07
2022-10-11T19:45:51.104Z,11.65
2022-10-11T19:48:18.107Z,12.30
2022-10-11T19:50:45.117Z,13.05
2022-10-11T19:53:12.124Z,13.88
2022-10-11T19:55:42.930Z,12.20
2022-10-11T19:58:12.702Z,12.70
2022-10-11T20:00:39.684Z,11.65
2022-10-11T20:03:06.718Z,11.35
2022-10-11T20:05:36.347Z,13.00
2022-10-11T20:08:03.366Z,12.68
2022-10-11T20:10:30.576Z,13.30
2022-10-11T20:12:57.731Z,14.52
2022-10-11T20:15:24.793Z,13.13
2022-10-11T20:17:51.924Z,12.50
2022-10-11T20:20:19.627Z,12.93
2022-10-11T20:22:46.789Z,12.27
2022-10-11T20:25:13.778Z,12.73
2022-10-11T20:27:43.179Z,12.80
2022-10-11T20:30:10.847Z,11.57
2022-10-11T20:32:37.874Z,12.23
2022-10-11T20:35:05.013Z,13.48
2022-10-11T20:37:32.293Z,12.63
2022-10-11T20:39:59.448Z,12.90
2022-10-11T20:42:29.740Z,12.98
2022-10-11T20:44:57.078Z,13.27
2022-10-11T20:47:24.073Z,12.73
2022-10-11T20:49:51.098Z,14.73
2022-10-11T20:52:18.082Z,13.18
2022-10-11T20:54:45.082Z,13.25
2022-10-11T20:57:12.086Z,13.23
2022-10-11T20:59:39.252Z,13.35
2022-10-11T21:02:06.255Z,13.68
2022-10-11T21:04:33.310Z,13.80
2022-10-11T21:07:00.406Z,13.82
2022-10-11T21:09:27.477Z,13.23
2022-10-11T21:11:54.522Z,13.63
2022-10-11T21:14:21.533Z,13.63
2022-10-11T21:16:48.525Z,11.82
2022-10-11T21:19:16.100Z,11.95
2022-10-11T21:21:43.271Z,10.55
2022-10-11T21:24:10.558Z,12.07
2022-10-11T21:26:37.601Z,12.50
2022-10-11T21:29:04.718Z,13.20
2022-10-11T21:31:34.280Z,10.50
2022-10-11T21:34:02.026Z,12.88
2022-10-11T21:36:29.031Z,13.10
2022-10-11T21:38:56.741Z,13.00
2022-10-11T21:41:29.813Z,13.98
2022-10-11T21:43:57.095Z,13.70
2022-10-11T21:46:41.721Z,14.73
2022-10-11T21:49:12.413Z,13.50
2022-10-11T21:51:39.683Z,15.60
2022-10-11T21:54:06.748Z,14.50
2022-10-11T21:56:33.808Z,14.23
2022-10-11T21:59:00.800Z,16.77
2022-10-11T22:01:28.058Z,14.63
2022-10-11T22:03:55.119Z,14.75
2022-10-11T22:06:22.377Z,14.93
2022-10-11T22:08:49.925Z,14.77
2022-10-11T22:11:17.417Z,14.80
2022-10-11T22:13:44.526Z,15.20
2022-10-11T22:16:12.513Z,15.05
2022-10-11T22:18:41.202Z,13.85
2022-10-11T22:21:09.893Z,13.73
2022-10-11T22:23:36.984Z,15.00
2022-10-11T22:26:05.156Z,15.23
2022-10-11T22:28:32.537Z,14.23
2022-10-11T22:31:00.021Z,13.10
2022-10-11T22:33:27.334Z,13.90
2022-10-11T22:35:55.142Z,14.65
2022-10-11T22:38:22.408Z,14.38
2022-10-11T22:40:49.454Z,14.57
2022-10-11T22:43:16.759Z,16.38
2022-10-11T22:45:43.864Z,13.77
2022-10-11T22:48:10.984Z,13.52
2022-10-11T22:50:38.295Z,12.68
2022-10-11T22:53:06.345Z,13.70
2022-10-11T22:55:33.520Z,13.85
2022-10-11T22:58:00.771Z,13.02
2022-10-11T23:00:28.062Z,13.70
2022-10-11T23:02:55.040Z,12.93
2022-10-11T23:05:22.041Z,12.45
2022-10-11T23:07:49.278Z,14.60
2022-10-11T23:10:16.687Z,13.73
2022-10-11T23:12:43.719Z,13.27
2022-10-11T23:15:11.137Z,14.02
2022-10-11T23:17:38.619Z,15.07
2022-10-11T23:20:06.796Z,14.15
2022-10-11T23:22:33.814Z,14.35
2022-10-11T23:25:00.952Z,15.32
2022-10-11T23:27:29.730Z,13.93
2022-10-11T23:29:56.937Z,14.82
2022-10-11T23:32:23.938Z,15.70
2022-10-11T23:34:51.542Z,15.48
2022-10-11T23:37:18.532Z,16.38
2022-10-11T23:39:45.591Z,17.17
2022-10-11T23:42:12.607Z,15.13
2022-10-11T23:44:39.685Z,16.42
2022-10-11T23:47:06.691Z,17.30
2022-10-11T23:49:33.671Z,16.75
2022-10-11T23:52:00.677Z,16.92
2022-10-11T23:54:27.922Z,17.00
2022-10-11T23:56:54.911Z,16.55
2022-10-11T23:59:21.890Z,16.00
